Leeds Bradford

Airport
ICAO code: 
EGNM
Summary
ICAO Region: 
EUR
Territory: 
Location: 
Yeadon, West Yorkshire, England,
Serving: 
Leeds and Bradford
Coordinates: 
Aerial View: 
53° 51' 58.053" N, 1° 39' 27.636" W
Airport CFIT: 
Runway Visual Perspective
Metar
Observation
EGNM 291420Z 23007KT 9999 BKN018 01/M00 Q1011
Station
Leeds And Bradford
Date/Time
2021-11-29 14:20:00
Wind direction
230°
Wind speed
07 kts
Lowest cloud amount
broken clouds
Temperature
1°C
Dew point
-0°C
Humidity
93%
QNH
1011 hPa
Weather condition
n/a

Description

Domestic and international airport serving the cities of Leeds and Bradford and the rest of West Yorkshire.

Climatology

Temperate Marine climate/Oceanic climate (Köppen climate classification Cfb). Moderately cool summer and comparatively warm winter with a temperature range of only 14°C. Prevailing south-westerly winds from the Atlantic Ocean.

Runways

Designator Length Width Surface Rops
14/32 2250 46 CON Yes/Yes
Airport map: 
Aerial View: 

SKYbrary Partners:

Safety knowledge contributed by: